• Join FlightAware (Why Join?)
  • Login
  • US Flag 
07:36PM EST


 

Airport Tracker/Info


-or-


 

Live Flight TrackerFlight Track Log ✈ N789EX ✈ 14-Jan-2014 ✈ KBFI - KMWH

Flight Track Log - Related Links

Times and Time Zones

All times are in EST time to prevent confusion due to time zone crossing. See the N789EX flight status page for this flight to view local times or setup timezone preferences in your user account.

Time Position Orientation Groundspeed Altitude Reporting Facility
EST Latitude Longitude Course Direction KTS MPH feet Rate Location/Type
12:13PM 47.5066 -122.2820 147° Southeast 197 227 1,200  Level FlightAware ADS-B
12:13PM 47.4930 -122.2690 147° Southeast 223 257 1,500 1,500 Climbing FlightAware ADS-B
12:14PM 47.4796 -122.2550 145° Southeast 234 269 2,000 2,220 Climbing FlightAware ADS-B
12:14PM 47.4676 -122.2440 148° Southeast 239 275 2,600 3,000 Climbing FlightAware ADS-B
12:14PM 47.4647 -122.2410 145° Southeast 239 275 2,800 3,420 Climbing FlightAware ADS-B
12:14PM 47.4613 -122.2370 142° Southeast 240 276 3,000 4,260 Climbing FlightAware ADS-B
12:14PM 47.4585 -122.2320 130° Southeast 240 276 3,300 3,720 Climbing FlightAware ADS-B
12:14PM 47.4558 -122.2270 129° Southeast 242 278 3,500 2,640 Climbing FlightAware ADS-B
12:14PM 47.4536 -122.2200 115° Southeast 244 281 3,700 3,420 Climbing FlightAware ADS-B
12:14PM 47.4522 -122.2150 112° Southeast 246 283 3,900 3,420 Climbing FlightAware ADS-B
12:14PM 47.4507 -122.2090 110° East 248 285 4,100 2,700 Climbing FlightAware ADS-B
12:14PM 47.4457 -122.1840 106° East 251 289 4,800 2,400 Climbing FlightAware ADS-B
12:15PM 47.4422 -122.1660 106° East 248 285 5,200 1,620 Climbing FlightAware ADS-B
12:15PM 47.4401 -122.1550 106° East 250 288 5,300 1,380 Climbing FlightAware ADS-B
12:15PM 47.4386 -122.1440 101° East 252 290 5,500 3,000 Climbing FlightAware ADS-B
12:15PM 47.4372 -122.1330 101° East 256 295 5,900 3,660 Climbing FlightAware ADS-B
12:15PM 47.4354 -122.1110 97° East 266 306 6,600 3,360 Climbing FlightAware ADS-B
12:15PM 47.4343 -122.0910 95° East 276 318 7,200 3,240 Climbing FlightAware ADS-B
12:16PM 47.4335 -122.0670 93° East 288 331 7,900 3,600 Climbing FlightAware ADS-B
12:16PM 47.4328 -122.0380 92° East 295 339 8,900 3,960 Climbing FlightAware ADS-B
12:16PM 47.4324 -122.0060 91° East 302 348 9,900 3,840 Climbing FlightAware ADS-B
12:17PM 47.4318 -121.9430 91° East 312 359 11,800 3,720 Climbing FlightAware ADS-B
12:17PM 47.4315 -121.8820 90° East 320 368 13,600 3,600 Climbing FlightAware ADS-B
12:18PM 47.4308 -121.8130 91° East 329 379 15,400 3,240 Climbing FlightAware ADS-B
12:18PM 47.4299 -121.7440 91° East 342 394 16,900 2,880 Climbing FlightAware ADS-B
12:19PM 47.4289 -121.6630 91° East 357 411 18,500 1,920 Climbing FlightAware ADS-B
12:19PM 47.4279 -121.5860 91° East 397 457 19,000 720 Climbing FlightAware ADS-B
12:19PM 47.4276 -121.5578 91° East 327 376 19,000  Level FlightAware ADS-B (EPKK / KRK)
12:20PM 47.4267 -121.5000 91° East 440 506 19,000  Level FlightAware ADS-B
12:20PM 47.4253 -121.4050 91° East 468 539 19,000 -540 Level FlightAware ADS-B
12:21PM 47.4215 -121.3090 93° East 468 539 18,500 -1,140 Descending FlightAware ADS-B
12:21PM 47.4158 -121.2140 95° East 462 532 17,900 -1,200 Descending FlightAware ADS-B
12:22PM 47.4103 -121.1200 95° East 456 525 17,300 -1,800 Descending FlightAware ADS-B
12:22PM 47.4047 -121.0270 95° East 443 510 16,100 -2,520 Descending FlightAware ADS-B
12:23PM 47.3994 -120.9360 95° East 438 504 14,700 -1,680 Descending FlightAware ADS-B
12:23PM 47.3940 -120.8440 95° East 441 507 14,400 -300 Descending FlightAware ADS-B
12:24PM 47.3887 -120.7530 95° East 443 510 14,400  Level FlightAware ADS-B
12:24PM 47.3832 -120.6580 95° East 439 505 14,400  Level FlightAware ADS-B
12:25PM 47.3780 -120.5680 95° East 441 507 14,400 -600 Level FlightAware ADS-B
12:25PM 47.3727 -120.4770 95° East 435 501 13,800 -1,860 Descending FlightAware ADS-B
12:26PM 47.3644 -120.3472 95° East 435 501 12,100 -1,620 Descending Seattle Center
12:27PM 47.3558 -120.2011 95° East 343 395 11,000 -600 Descending Seattle Center
12:28PM 47.3478 -120.0786 95° East 303 349 11,000 -600 Level Seattle Center
12:29PM 47.3419 -119.9586 94° East 297 342 9,800 -1,200 Descending Seattle Center
12:30PM 47.3361 -119.8300 94° East 293 337 8,600 -1,080 Descending Seattle Center
12:31PM 47.3314 -119.7308 94° East 288 331 7,700 -900 Descending Seattle Center
12:33PM 47.2856 -119.5765 98° East  Level Estimated
12:40PM 47.2000 -119.3167 104° East  Level FlightAware Approximate
12:41PM 47.2086 -119.3191 104° East  Level Estimated
12:42PM 47.2086 -119.3191 104° East  Level Estimated
12:43PM 47.2086 -119.3191 104° East  Level Estimated
12:44PM 47.2086 -119.3191 104° East  Level Estimated
12:45PM 47.2086 -119.3191 104° East  Level Estimated
12:46PM 47.2086 -119.3191 104° East  Level Estimated
12:47PM 47.2086 -119.3191 104° East  Level Estimated
12:48PM 47.2086 -119.3191 104° East  Level Estimated
12:49PM 47.2086 -119.3191 104° East  Level Estimated
12:50PM 47.2086 -119.3191 104° East  Level Estimated
12:51PM 47.2086 -119.3191 104° East  Level Estimated
12:52PM 47.2086 -119.3191 104° East  Level Estimated